createdAt,value
2019-03-11T00:00:30.937Z,5.30
2019-03-11T00:03:00.277Z,5.20
2019-03-11T00:05:29.615Z,5.20
2019-03-11T00:07:58.969Z,5.20
2019-03-11T00:10:28.328Z,5.10
2019-03-11T00:12:57.674Z,5.10
2019-03-11T00:15:27.188Z,5.10
2019-03-11T00:17:56.537Z,5.10
2019-03-11T00:20:25.862Z,5.00
2019-03-11T00:22:55.205Z,5.00
2019-03-11T00:25:24.540Z,5.00
2019-03-11T00:27:53.918Z,4.90
2019-03-11T00:30:23.252Z,4.90
2019-03-11T00:32:52.589Z,4.90
2019-03-11T00:35:21.943Z,4.90
2019-03-11T00:37:51.268Z,4.90
2019-03-11T00:40:20.631Z,5.00
2019-03-11T00:42:49.966Z,5.00
2019-03-11T00:45:19.304Z,5.10
2019-03-11T00:47:48.637Z,5.00
2019-03-11T00:50:17.974Z,5.00
2019-03-11T00:52:47.540Z,5.00
2019-03-11T00:55:16.954Z,5.00
2019-03-11T00:57:46.285Z,5.00
2019-03-11T01:00:25.641Z,5.00
2019-03-11T01:02:54.975Z,5.00
2019-03-11T01:05:24.310Z,4.90
2019-03-11T01:07:53.645Z,4.90
2019-03-11T01:10:23.385Z,4.90
2019-03-11T01:12:52.717Z,4.80
2019-03-11T01:15:22.054Z,4.90
2019-03-11T01:17:51.394Z,4.90
2019-03-11T01:20:20.725Z,4.90
2019-03-11T01:22:50.078Z,5.00
2019-03-11T01:25:19.418Z,5.10
2019-03-11T01:27:48.748Z,5.00
2019-03-11T01:30:18.723Z,5.10
2019-03-11T01:32:48.331Z,5.00
2019-03-11T01:35:17.669Z,5.00
2019-03-11T01:37:47.024Z,5.00
2019-03-11T01:40:18.076Z,4.90
2019-03-11T01:42:47.407Z,4.90
2019-03-11T01:45:19.419Z,4.90
2019-03-11T01:47:48.758Z,4.80
2019-03-11T01:50:18.104Z,4.80
2019-03-11T01:52:47.441Z,4.80
2019-03-11T01:55:17.009Z,4.80
2019-03-11T01:57:46.345Z,4.90
2019-03-11T02:00:18.284Z,4.90
2019-03-11T02:02:47.625Z,4.90
2019-03-11T02:05:17.120Z,5.00
2019-03-11T02:07:46.463Z,5.00
2019-03-11T02:10:19.238Z,5.00
2019-03-11T02:12:48.577Z,5.00
2019-03-11T02:15:19.626Z,5.00
2019-03-11T02:17:48.969Z,5.00
2019-03-11T02:20:19.143Z,5.00
2019-03-11T02:22:48.528Z,4.90
2019-03-11T02:25:17.996Z,4.90
2019-03-11T02:27:47.331Z,4.90
2019-03-11T02:30:18.587Z,4.80
2019-03-11T02:32:47.928Z,4.90
2019-03-11T02:35:31.480Z,4.90
2019-03-11T02:38:00.817Z,4.80
2019-03-11T02:40:30.160Z,4.80
2019-03-11T02:42:59.483Z,4.80
2019-03-11T02:45:28.835Z,4.80
2019-03-11T02:47:58.152Z,4.80
2019-03-11T02:50:27.488Z,4.80
2019-03-11T02:52:56.839Z,4.80
2019-03-11T02:55:26.169Z,4.80
2019-03-11T02:57:55.579Z,4.80
2019-03-11T03:00:24.940Z,4.80
2019-03-11T03:02:58.612Z,4.90
2019-03-11T03:05:32.206Z,4.90
2019-03-11T03:08:01.566Z,4.80
2019-03-11T03:10:30.883Z,4.80
2019-03-11T03:13:00.218Z,4.70
2019-03-11T03:15:29.565Z,4.70
2019-03-11T03:17:58.907Z,4.70
2019-03-11T03:20:28.245Z,4.70
2019-03-11T03:22:57.578Z,4.70
2019-03-11T03:25:33.664Z,4.80
2019-03-11T03:27:58.891Z,4.80
2019-03-11T03:30:28.462Z,4.70
2019-03-11T03:32:57.822Z,4.60
2019-03-11T03:35:27.142Z,4.60
2019-03-11T03:37:56.472Z,4.60
2019-03-11T03:40:25.807Z,4.60
2019-03-11T03:42:55.529Z,4.50
2019-03-11T03:45:40.642Z,4.50
2019-03-11T03:48:10.146Z,4.50
2019-03-11T03:50:40.811Z,4.50
2019-03-11T03:53:10.594Z,4.50
2019-03-11T03:55:40.007Z,4.50
2019-03-11T03:58:09.327Z,4.50
2019-03-11T04:00:38.929Z,4.40
2019-03-11T04:03:08.265Z,4.30
2019-03-11T04:05:37.592Z,4.20
2019-03-11T04:08:06.928Z,4.00
2019-03-11T04:10:36.301Z,3.80
2019-03-11T04:13:05.627Z,3.80
2019-03-11T04:15:34.953Z,3.70
2019-03-11T04:18:07.369Z,3.70
2019-03-11T04:20:37.308Z,3.70
2019-03-11T04:23:06.643Z,3.70
2019-03-11T04:25:35.968Z,3.80
2019-03-11T04:28:05.649Z,3.80
2019-03-11T04:30:35.135Z,3.80
2019-03-11T04:33:04.642Z,3.80
2019-03-11T04:35:33.975Z,3.80
2019-03-11T04:38:03.305Z,3.80
2019-03-11T04:40:32.635Z,3.90
2019-03-11T04:43:01.965Z,4.00
2019-03-11T04:45:31.296Z,4.00
2019-03-11T04:48:00.656Z,3.90
2019-03-11T04:50:29.991Z,3.90
2019-03-11T04:52:59.342Z,3.90
2019-03-11T04:55:28.671Z,4.00
2019-03-11T04:57:58.031Z,4.00
2019-03-11T05:00:30.380Z,4.00
2019-03-11T05:02:59.712Z,4.00
2019-03-11T05:05:29.047Z,3.90
2019-03-11T05:07:58.381Z,4.00
2019-03-11T05:10:27.716Z,4.00
2019-03-11T05:12:57.059Z,4.00
2019-03-11T05:15:26.395Z,4.00
2019-03-11T05:17:55.720Z,4.10
2019-03-11T05:20:25.061Z,4.20
2019-03-11T05:22:55.002Z,4.20
2019-03-11T05:25:24.560Z,4.20
2019-03-11T05:27:54.110Z,4.10
2019-03-11T05:30:23.436Z,4.10
2019-03-11T05:32:52.786Z,4.00
2019-03-11T05:35:22.123Z,4.00
2019-03-11T05:37:51.456Z,3.90
2019-03-11T05:40:22.040Z,4.00
2019-03-11T05:42:51.371Z,4.00
2019-03-11T05:45:21.244Z,4.00
2019-03-11T05:47:50.572Z,4.10
2019-03-11T05:50:20.443Z,4.20
2019-03-11T05:52:49.951Z,4.20
2019-03-11T05:55:19.275Z,4.20
2019-03-11T05:57:49.012Z,4.30
2019-03-11T06:00:22.896Z,4.30
2019-03-11T06:02:52.624Z,4.40
2019-03-11T06:05:22.117Z,4.40
2019-03-11T06:07:52.199Z,4.50
2019-03-11T06:10:22.206Z,4.50
2019-03-11T06:12:51.531Z,4.50
2019-03-11T06:15:21.055Z,4.50
2019-03-11T06:17:50.844Z,4.60
2019-03-11T06:20:38.261Z,4.60
2019-03-11T06:23:12.111Z,4.60
2019-03-11T06:25:41.546Z,4.70
2019-03-11T06:28:11.020Z,4.70
2019-03-11T06:30:40.359Z,4.70
2019-03-11T06:33:09.710Z,4.80
2019-03-11T06:35:40.331Z,4.80
2019-03-11T06:38:09.973Z,4.80
2019-03-11T06:40:39.309Z,4.80
2019-03-11T06:43:08.649Z,4.90
2019-03-11T06:45:37.984Z,4.90
2019-03-11T06:48:07.333Z,4.90
2019-03-11T06:50:36.705Z,5.00
2019-03-11T06:53:06.040Z,5.00
2019-03-11T06:55:35.381Z,5.00
2019-03-11T06:58:04.718Z,5.00
2019-03-11T07:00:34.050Z,5.00
2019-03-11T07:03:03.397Z,5.10
2019-03-11T07:05:32.730Z,5.10
2019-03-11T07:08:02.209Z,5.10
2019-03-11T07:10:31.547Z,5.10
2019-03-11T07:13:00.937Z,5.10
2019-03-11T07:15:30.274Z,5.10
2019-03-11T07:17:59.610Z,5.20
2019-03-11T07:20:28.945Z,5.20
2019-03-11T07:22:58.286Z,5.20
2019-03-11T07:25:27.692Z,5.20
2019-03-11T07:27:57.062Z,5.30
2019-03-11T07:30:26.400Z,5.30
2019-03-11T07:32:55.741Z,5.40
2019-03-11T07:35:25.073Z,5.40
2019-03-11T07:37:54.419Z,5.40
2019-03-11T07:40:29.777Z,5.40
2019-03-11T07:42:54.822Z,5.50
2019-03-11T07:45:24.324Z,5.50
2019-03-11T07:47:53.663Z,5.60
2019-03-11T07:50:23.066Z,5.60
2019-03-11T07:52:52.413Z,5.60
2019-03-11T07:55:21.737Z,5.80
2019-03-11T07:57:51.072Z,5.80
2019-03-11T08:00:22.143Z,5.80
2019-03-11T08:02:51.494Z,5.80
2019-03-11T08:05:20.920Z,5.80
2019-03-11T08:07:50.320Z,5.80
2019-03-11T08:10:22.110Z,5.80
2019-03-11T08:12:51.442Z,5.80
2019-03-11T08:15:20.846Z,5.90
2019-03-11T08:17:50.178Z,5.90
2019-03-11T08:20:19.532Z,5.90
2019-03-11T08:22:48.867Z,6.00
2019-03-11T08:25:18.373Z,5.80
2019-03-11T08:27:47.701Z,5.50
2019-03-11T08:30:22.317Z,4.80
2019-03-11T08:32:51.705Z,4.50
2019-03-11T08:35:21.060Z,4.40
2019-03-11T08:37:50.462Z,4.40
2019-03-11T08:40:21.604Z,4.40
2019-03-11T08:42:50.942Z,4.50
2019-03-11T08:45:20.849Z,4.70
2019-03-11T08:47:50.189Z,4.70
2019-03-11T08:50:25.563Z,4.70
2019-03-11T08:52:54.970Z,4.70
2019-03-11T08:55:24.305Z,4.70
2019-03-11T08:57:53.639Z,4.60
2019-03-11T09:00:26.395Z,4.60
2019-03-11T09:02:55.729Z,4.60
2019-03-11T09:05:25.115Z,4.70
2019-03-11T09:07:54.720Z,5.00
2019-03-11T09:10:24.059Z,5.00
2019-03-11T09:12:53.395Z,5.00
2019-03-11T09:15:23.165Z,5.00
2019-03-11T09:17:52.473Z,5.10
2019-03-11T09:20:21.811Z,5.30
2019-03-11T09:22:51.144Z,5.30
2019-03-11T09:25:26.358Z,5.30
2019-03-11T09:27:55.689Z,5.30
2019-03-11T09:30:25.366Z,5.30
2019-03-11T09:32:54.708Z,5.40
2019-03-11T09:35:24.047Z,5.50
2019-03-11T09:37:53.377Z,5.70
2019-03-11T09:40:23.005Z,5.80
2019-03-11T09:42:52.346Z,5.90
2019-03-11T09:45:24.093Z,6.10
2019-03-11T09:47:53.008Z,6.30
2019-03-11T09:50:22.516Z,6.50
2019-03-11T09:52:51.850Z,6.60
2019-03-11T09:55:29.052Z,6.60
2019-03-11T09:57:58.404Z,6.60
2019-03-11T10:00:34.493Z,6.50
2019-03-11T10:03:03.920Z,6.30
2019-03-11T10:05:33.325Z,6.00
2019-03-11T10:08:02.787Z,5.60
2019-03-11T10:10:32.284Z,5.40
2019-03-11T10:13:01.642Z,5.40
2019-03-11T10:15:31.086Z,5.50
2019-03-11T10:18:00.427Z,5.50
2019-03-11T10:20:29.757Z,5.40
2019-03-11T10:22:59.095Z,5.20
2019-03-11T10:25:28.432Z,5.20
2019-03-11T10:27:57.792Z,5.30
2019-03-11T10:30:27.147Z,5.40
2019-03-11T10:32:56.483Z,5.50
2019-03-11T10:35:31.937Z,5.60
2019-03-11T10:37:56.893Z,5.70
2019-03-11T10:40:28.441Z,5.90
2019-03-11T10:42:57.819Z,5.90
2019-03-11T10:45:31.679Z,5.90
2019-03-11T10:47:58.394Z,6.00
2019-03-11T10:50:27.725Z,6.00
2019-03-11T10:52:57.118Z,6.10
2019-03-11T10:55:27.744Z,6.20
2019-03-11T10:57:57.097Z,6.30
2019-03-11T11:00:31.273Z,6.40
2019-03-11T11:03:00.957Z,6.60
2019-03-11T11:05:30.640Z,6.70
2019-03-11T11:07:59.892Z,6.70
2019-03-11T11:10:29.240Z,6.80
2019-03-11T11:13:11.070Z,6.90
2019-03-11T11:15:40.416Z,7.20
2019-03-11T11:18:09.783Z,7.30
2019-03-11T11:20:39.121Z,7.40
2019-03-11T11:23:08.485Z,7.40
2019-03-11T11:25:37.801Z,7.30
2019-03-11T11:28:07.141Z,7.30
2019-03-11T11:30:36.734Z,7.40
2019-03-11T11:33:06.218Z,7.40
2019-03-11T11:35:35.744Z,7.40
2019-03-11T11:38:05.144Z,7.50
2019-03-11T11:40:34.479Z,7.50
2019-03-11T11:43:03.885Z,7.50
2019-03-11T11:45:33.921Z,7.60
2019-03-11T11:48:03.254Z,7.50
2019-03-11T11:50:32.593Z,7.70
2019-03-11T11:53:01.945Z,7.80
2019-03-11T11:55:31.372Z,7.90
2019-03-11T11:58:00.707Z,7.90
2019-03-11T12:00:42.744Z,7.70
2019-03-11T12:03:12.102Z,7.60
2019-03-11T12:05:41.438Z,7.60
2019-03-11T12:08:10.846Z,7.50
2019-03-11T12:10:40.192Z,7.60
2019-03-11T12:13:09.532Z,7.60
2019-03-11T12:15:38.866Z,7.50
2019-03-11T12:18:08.205Z,7.50
2019-03-11T12:20:37.574Z,7.40
2019-03-11T12:23:06.897Z,7.40
2019-03-11T12:25:36.238Z,7.50
2019-03-11T12:28:05.574Z,7.80
2019-03-11T12:30:36.056Z,7.90
2019-03-11T12:33:05.391Z,7.90
2019-03-11T12:35:34.912Z,8.00
2019-03-11T12:38:04.413Z,8.00
2019-03-11T12:40:33.755Z,8.20
2019-03-11T12:43:03.092Z,8.20
2019-03-11T12:45:32.429Z,8.10
2019-03-11T12:48:01.794Z,8.20
2019-03-11T12:50:33.537Z,8.20
2019-03-11T12:53:02.873Z,8.30
2019-03-11T12:55:32.216Z,8.30
2019-03-11T12:58:01.546Z,8.40
2019-03-11T13:00:30.885Z,8.40
2019-03-11T13:03:00.258Z,8.30
2019-03-11T13:05:29.556Z,8.30
2019-03-11T13:07:59.068Z,8.30
2019-03-11T13:10:31.878Z,8.30
2019-03-11T13:13:01.282Z,8.40
2019-03-11T13:15:30.693Z,8.30
2019-03-11T13:18:32.927Z,8.30
2019-03-11T13:21:08.764Z,8.20
2019-03-11T13:23:38.096Z,8.10
2019-03-11T13:26:07.436Z,8.00
2019-03-11T13:28:36.778Z,7.90
2019-03-11T13:31:06.117Z,8.00
2019-03-11T13:33:35.458Z,8.20
2019-03-11T13:36:06.785Z,8.40
2019-03-11T13:38:37.625Z,8.40
2019-03-11T13:41:06.957Z,8.40
2019-03-11T13:43:36.462Z,8.60
2019-03-11T13:46:05.793Z,8.70
2019-03-11T13:48:35.137Z,8.90
2019-03-11T13:51:04.717Z,9.00
2019-03-11T13:53:34.048Z,8.90
2019-03-11T13:56:03.381Z,8.90
2019-03-11T13:58:33.346Z,8.80
2019-03-11T14:01:02.739Z,8.90
2019-03-11T14:03:32.071Z,8.90
2019-03-11T14:06:01.424Z,8.90
2019-03-11T14:08:30.761Z,8.80
2019-03-11T14:11:00.093Z,9.00
2019-03-11T14:13:29.437Z,8.90
2019-03-11T14:15:58.767Z,8.60
2019-03-11T14:18:28.116Z,8.70
2019-03-11T14:20:57.593Z,8.90
2019-03-11T14:23:26.927Z,8.90
2019-03-11T14:25:56.270Z,8.90
2019-03-11T14:28:25.603Z,8.80
2019-03-11T14:30:55.004Z,8.60
2019-03-11T14:33:24.336Z,8.70
2019-03-11T14:35:53.677Z,8.60
2019-03-11T14:38:23.007Z,8.50
2019-03-11T14:40:52.392Z,8.50
2019-03-11T14:43:21.734Z,8.40
2019-03-11T14:45:51.069Z,8.30
2019-03-11T14:48:20.413Z,8.20
2019-03-11T14:50:49.746Z,8.10
2019-03-11T14:53:19.108Z,8.00
2019-03-11T14:55:48.444Z,7.90
2019-03-11T14:58:28.744Z,8.00
2019-03-11T15:00:48.846Z,8.00
2019-03-11T15:03:18.189Z,8.10
2019-03-11T15:05:47.527Z,8.10
2019-03-11T15:08:16.872Z,8.00
2019-03-11T15:10:46.204Z,8.10
2019-03-11T15:13:15.544Z,8.10
2019-03-11T15:15:44.886Z,8.10
2019-03-11T15:18:14.297Z,8.00
2019-03-11T15:20:43.642Z,8.00
2019-03-11T15:23:20.484Z,8.10
2019-03-11T15:25:44.215Z,8.10
2019-03-11T15:28:13.556Z,8.00
2019-03-11T15:30:42.910Z,8.00
2019-03-11T15:33:12.261Z,7.90
2019-03-11T15:35:41.601Z,8.00
2019-03-11T15:38:10.955Z,8.00
2019-03-11T15:40:40.293Z,8.00
2019-03-11T15:43:09.633Z,7.90
2019-03-11T15:45:39.342Z,7.90
2019-03-11T15:48:08.752Z,7.90
2019-03-11T15:50:38.080Z,7.90
2019-03-11T15:53:07.421Z,7.80
2019-03-11T15:55:36.759Z,7.90
2019-03-11T15:58:06.098Z,7.80
2019-03-11T16:00:35.429Z,7.80
2019-03-11T16:03:05.341Z,7.90
2019-03-11T16:05:34.672Z,7.80
2019-03-11T16:08:04.192Z,7.90
2019-03-11T16:10:33.597Z,7.80
2019-03-11T16:13:02.946Z,7.70
2019-03-11T16:15:32.274Z,7.70
2019-03-11T16:18:01.619Z,7.70
2019-03-11T16:20:31.030Z,7.70
2019-03-11T16:23:00.367Z,7.70
2019-03-11T16:25:29.719Z,7.70
2019-03-11T16:27:59.048Z,7.60
2019-03-11T16:30:28.783Z,7.60
2019-03-11T16:33:00.416Z,7.60
2019-03-11T16:35:29.334Z,7.60
2019-03-11T16:37:58.675Z,7.60
2019-03-11T16:40:28.011Z,7.70
2019-03-11T16:42:57.343Z,7.70
2019-03-11T16:45:27.023Z,7.70
2019-03-11T16:47:56.433Z,7.80
2019-03-11T16:50:27.677Z,7.80
2019-03-11T16:52:57.087Z,7.60
2019-03-11T16:55:28.065Z,7.60
2019-03-11T16:57:57.399Z,7.60
2019-03-11T17:00:31.059Z,7.60
2019-03-11T17:03:00.394Z,7.50
2019-03-11T17:05:29.746Z,7.60
2019-03-11T17:07:59.181Z,7.60
2019-03-11T17:10:28.520Z,7.50
2019-03-11T17:12:57.873Z,7.50
2019-03-11T17:15:27.194Z,7.50
2019-03-11T17:17:56.537Z,7.50
2019-03-11T17:20:27.202Z,7.50
2019-03-11T17:22:56.499Z,7.50
2019-03-11T17:25:25.837Z,7.50
2019-03-11T17:27:55.183Z,7.50
2019-03-11T17:30:28.200Z,7.50
2019-03-11T17:32:57.556Z,7.40
2019-03-11T17:35:26.901Z,7.30
2019-03-11T17:37:56.239Z,7.30
2019-03-11T17:40:26.024Z,7.40
2019-03-11T17:42:55.367Z,7.30
2019-03-11T17:45:24.842Z,7.30
2019-03-11T17:47:54.178Z,7.30
2019-03-11T17:50:24.621Z,7.40
2019-03-11T17:52:54.196Z,7.30
2019-03-11T17:55:23.604Z,7.20
2019-03-11T17:57:52.939Z,7.20
2019-03-11T18:00:28.178Z,7.20
2019-03-11T18:02:57.524Z,7.20
2019-03-11T18:05:26.943Z,7.20
2019-03-11T18:07:56.344Z,7.20
2019-03-11T18:10:25.685Z,7.10
2019-03-11T18:12:55.023Z,7.10
2019-03-11T18:15:24.360Z,7.00
2019-03-11T18:17:53.696Z,7.00
2019-03-11T18:20:23.091Z,7.00
2019-03-11T18:22:52.528Z,7.10
2019-03-11T18:25:22.320Z,6.90
2019-03-11T18:27:51.664Z,6.90
2019-03-11T18:30:29.768Z,6.90
2019-03-11T18:32:59.105Z,6.90
2019-03-11T18:35:28.454Z,7.00
2019-03-11T18:38:04.088Z,6.90
2019-03-11T18:40:28.951Z,6.90
2019-03-11T18:42:58.649Z,6.80
2019-03-11T18:45:27.925Z,6.80
2019-03-11T18:47:57.266Z,6.70
2019-03-11T18:50:26.664Z,6.70
2019-03-11T18:52:56.045Z,6.60
2019-03-11T18:55:25.360Z,6.60
2019-03-11T18:57:54.683Z,6.50
2019-03-11T19:00:25.160Z,6.50
2019-03-11T19:02:54.466Z,6.50
2019-03-11T19:05:26.874Z,6.40
2019-03-11T19:07:56.788Z,6.40
2019-03-11T19:10:26.283Z,6.30
2019-03-11T19:12:55.712Z,6.30
2019-03-11T19:15:26.681Z,6.30
2019-03-11T19:17:56.011Z,6.20
2019-03-11T19:20:26.376Z,6.20
2019-03-11T19:22:55.734Z,6.20
2019-03-11T19:25:25.081Z,6.10
2019-03-11T19:27:54.384Z,6.10
2019-03-11T19:30:28.279Z,6.10
2019-03-11T19:32:57.666Z,6.00
2019-03-11T19:35:27.028Z,6.00
2019-03-11T19:37:56.459Z,5.90
2019-03-11T19:40:28.536Z,5.90
2019-03-11T19:42:57.891Z,5.90
2019-03-11T19:45:27.216Z,5.80
2019-03-11T19:47:56.559Z,5.80
2019-03-11T19:50:25.945Z,5.80
2019-03-11T19:52:59.130Z,5.80
2019-03-11T19:55:26.316Z,5.70
2019-03-11T19:57:55.648Z,5.70
2019-03-11T20:00:26.016Z,5.70
2019-03-11T20:02:55.510Z,5.60
2019-03-11T20:05:34.861Z,5.60
2019-03-11T20:08:04.351Z,5.60
2019-03-11T20:10:33.682Z,5.60
2019-03-11T20:13:03.055Z,5.50
2019-03-11T20:15:32.451Z,5.60
2019-03-11T20:18:01.789Z,5.60
2019-03-11T20:20:31.435Z,5.60
2019-03-11T20:23:00.764Z,5.70
2019-03-11T20:25:35.448Z,5.70
2019-03-11T20:28:05.071Z,5.70
2019-03-11T20:30:34.552Z,5.80
2019-03-11T20:33:04.474Z,5.80
2019-03-11T20:35:33.967Z,5.70
2019-03-11T20:38:03.397Z,5.70
2019-03-11T20:40:32.707Z,5.60
2019-03-11T20:43:02.119Z,5.60
2019-03-11T20:45:31.430Z,5.60
2019-03-11T20:48:00.774Z,5.60
2019-03-11T20:50:41.414Z,5.60
2019-03-11T20:53:01.131Z,5.50
2019-03-11T20:55:33.929Z,5.50
2019-03-11T20:58:02.062Z,5.50
2019-03-11T21:00:31.821Z,5.50
2019-03-11T21:03:01.255Z,5.50
2019-03-11T21:05:37.482Z,5.50
2019-03-11T21:08:06.974Z,5.40
2019-03-11T21:10:36.706Z,5.40
2019-03-11T21:13:06.583Z,5.40
2019-03-11T21:15:36.021Z,5.40
2019-03-11T21:18:05.464Z,5.40
2019-03-11T21:20:34.790Z,5.40
2019-03-11T21:23:04.159Z,5.40
2019-03-11T21:25:33.527Z,5.40
2019-03-11T21:28:02.921Z,5.40
2019-03-11T21:30:32.262Z,5.30
2019-03-11T21:33:01.570Z,5.30
2019-03-11T21:35:30.959Z,5.30
2019-03-11T21:38:00.659Z,5.30
2019-03-11T21:40:29.964Z,5.20
2019-03-11T21:42:59.334Z,5.30
2019-03-11T21:45:33.920Z,5.20
2019-03-11T21:47:59.796Z,5.20
2019-03-11T21:50:30.459Z,5.20
2019-03-11T21:52:59.852Z,5.10
2019-03-11T21:55:29.231Z,5.10
2019-03-11T21:57:58.565Z,5.00
2019-03-11T22:00:34.582Z,4.90
2019-03-11T22:02:58.943Z,4.90
2019-03-11T22:05:28.281Z,4.90
2019-03-11T22:07:57.624Z,4.80
2019-03-11T22:10:26.949Z,4.70
2019-03-11T22:12:56.293Z,4.70
2019-03-11T22:15:26.934Z,4.60
2019-03-11T22:17:56.280Z,4.60
2019-03-11T22:20:25.627Z,4.50
2019-03-11T22:22:54.962Z,4.60
2019-03-11T22:25:24.303Z,4.50
2019-03-11T22:27:53.657Z,4.50
2019-03-11T22:30:26.416Z,4.50
2019-03-11T22:32:55.748Z,4.40
2019-03-11T22:35:25.075Z,4.40
2019-03-11T22:37:54.416Z,4.40
2019-03-11T22:40:23.785Z,4.30
2019-03-11T22:42:53.122Z,4.30
2019-03-11T22:45:22.957Z,4.30
2019-03-11T22:47:52.855Z,4.20
2019-03-11T22:50:22.362Z,4.20
2019-03-11T22:52:51.700Z,4.10
2019-03-11T22:55:21.305Z,4.10
2019-03-11T22:57:50.661Z,4.10
2019-03-11T23:00:28.914Z,4.10
2019-03-11T23:02:58.254Z,4.10
2019-03-11T23:05:27.596Z,4.10
2019-03-11T23:07:57.095Z,4.10
2019-03-11T23:10:26.433Z,4.10
2019-03-11T23:12:55.765Z,4.10
2019-03-11T23:15:25.110Z,4.10
2019-03-11T23:17:54.448Z,4.00
2019-03-11T23:20:23.798Z,4.00
2019-03-11T23:22:53.115Z,4.00
2019-03-11T23:25:22.456Z,3.90
2019-03-11T23:27:51.801Z,3.80
2019-03-11T23:30:21.134Z,3.80
2019-03-11T23:32:50.466Z,3.70
2019-03-11T23:35:19.797Z,3.60
2019-03-11T23:37:49.142Z,3.60
2019-03-11T23:40:18.501Z,3.50
2019-03-11T23:42:47.807Z,3.50
2019-03-11T23:45:17.399Z,3.40
2019-03-11T23:47:46.737Z,3.40
2019-03-11T23:50:19.266Z,3.40
2019-03-11T23:52:47.511Z,3.50
2019-03-11T23:55:16.925Z,3.50
2019-03-11T23:57:46.247Z,3.50
